createdAt,value
2022-10-06T00:02:07.313Z,67.95
2022-10-06T00:05:13.374Z,68.08
2022-10-06T00:08:15.988Z,68.03
2022-10-06T00:11:19.111Z,68.08
2022-10-06T00:14:21.574Z,68.16
2022-10-06T00:17:24.499Z,68.28
2022-10-06T00:20:27.657Z,68.33
2022-10-06T00:23:31.656Z,68.52
2022-10-06T00:26:35.020Z,68.56
2022-10-06T00:29:37.947Z,68.58
2022-10-06T00:32:40.618Z,68.74
2022-10-06T00:35:44.829Z,68.72
2022-10-06T00:38:48.018Z,68.82
2022-10-06T00:41:50.918Z,68.94
2022-10-06T00:44:54.183Z,68.90
2022-10-06T00:48:02.602Z,68.79
2022-10-06T00:51:05.913Z,68.89
2022-10-06T00:54:09.180Z,68.88
2022-10-06T00:57:13.008Z,68.99
2022-10-06T01:00:16.371Z,69.27
2022-10-06T01:03:24.488Z,69.34
2022-10-06T01:06:27.793Z,69.28
2022-10-06T01:09:31.610Z,69.37
2022-10-06T01:12:35.091Z,69.41
2022-10-06T01:15:43.097Z,69.59
2022-10-06T01:18:47.801Z,69.72
2022-10-06T01:21:53.518Z,70.00
2022-10-06T01:24:56.911Z,69.95
2022-10-06T01:28:02.008Z,70.17
2022-10-06T01:31:06.199Z,70.42
2022-10-06T01:34:10.321Z,70.70
2022-10-06T01:37:13.877Z,70.97
2022-10-06T01:40:16.588Z,71.16
2022-10-06T01:43:21.102Z,71.26
2022-10-06T01:46:23.648Z,71.51
2022-10-06T01:49:26.818Z,71.90
2022-10-06T01:52:29.349Z,72.29
2022-10-06T01:55:32.273Z,72.77
2022-10-06T01:58:35.154Z,73.16
2022-10-06T02:01:38.222Z,73.53
2022-10-06T02:04:40.964Z,73.85
2022-10-06T02:07:43.910Z,74.23
2022-10-06T02:10:48.786Z,74.67
2022-10-06T02:13:52.648Z,74.84
2022-10-06T02:16:55.846Z,74.96
2022-10-06T02:19:58.522Z,75.09
2022-10-06T02:23:02.507Z,75.17
2022-10-06T02:26:06.722Z,75.33
2022-10-06T02:29:09.807Z,75.66
2022-10-06T02:32:12.440Z,75.80
2022-10-06T02:35:16.702Z,76.01
2022-10-06T02:38:19.573Z,76.28
2022-10-06T02:41:22.317Z,76.42
2022-10-06T02:44:25.334Z,76.45
2022-10-06T02:47:28.320Z,76.75
2022-10-06T02:50:30.915Z,76.90
2022-10-06T02:53:34.624Z,76.90
2022-10-06T02:56:37.997Z,76.99
2022-10-06T02:59:40.688Z,77.08
2022-10-06T03:02:43.770Z,77.15
2022-10-06T03:05:46.747Z,77.02
2022-10-06T03:09:01.535Z,77.01
2022-10-06T03:12:04.825Z,77.11
2022-10-06T03:15:08.518Z,77.19
2022-10-06T03:18:12.599Z,77.14
2022-10-06T03:21:15.545Z,77.11
2022-10-06T03:24:18.433Z,76.95
2022-10-06T03:27:21.669Z,76.90
2022-10-06T03:30:25.111Z,76.60
2022-10-06T03:33:27.832Z,76.12
2022-10-06T03:36:32.980Z,75.91
2022-10-06T03:39:36.320Z,75.82
2022-10-06T03:42:39.261Z,75.97
2022-10-06T03:45:41.972Z,75.82
2022-10-06T03:48:44.739Z,76.00
2022-10-06T03:51:47.641Z,75.81
2022-10-06T03:54:51.265Z,76.01
2022-10-06T03:57:57.251Z,76.32
2022-10-06T04:01:25.992Z,76.53
2022-10-06T04:04:29.495Z,76.51
2022-10-06T04:07:33.956Z,76.56
2022-10-06T04:10:37.145Z,76.55
2022-10-06T04:13:46.592Z,76.50
2022-10-06T04:16:51.086Z,76.68
2022-10-06T04:19:53.895Z,76.93
2022-10-06T04:22:56.888Z,76.93
2022-10-06T04:26:06.334Z,77.06
2022-10-06T04:29:09.307Z,77.23
2022-10-06T04:32:11.918Z,77.53
2022-10-06T04:35:15.396Z,77.57
2022-10-06T04:38:18.117Z,77.66
2022-10-06T04:41:21.662Z,77.73
2022-10-06T04:44:24.416Z,77.74
2022-10-06T04:47:28.501Z,77.68
2022-10-06T04:50:31.036Z,77.71
2022-10-06T04:53:39.526Z,77.61
2022-10-06T04:56:42.187Z,77.54
2022-10-06T05:00:07.946Z,77.61
2022-10-06T05:03:14.617Z,77.80
2022-10-06T05:06:21.311Z,77.78
2022-10-06T05:09:24.069Z,77.84
2022-10-06T05:12:31.256Z,77.87
2022-10-06T05:15:33.921Z,77.73
2022-10-06T05:18:37.050Z,77.71
2022-10-06T05:21:40.536Z,77.60
2022-10-06T05:24:43.824Z,77.68
2022-10-06T05:27:47.397Z,77.38
2022-10-06T05:31:01.238Z,77.20
2022-10-06T05:34:07.867Z,76.27
2022-10-06T05:37:11.079Z,75.94
2022-10-06T05:40:14.383Z,75.98
2022-10-06T05:43:18.219Z,75.69
2022-10-06T05:46:28.287Z,75.21
2022-10-06T05:49:31.709Z,74.63
2022-10-06T05:52:34.395Z,73.58
2022-10-06T05:55:37.559Z,73.04
2022-10-06T05:58:42.852Z,72.79
2022-10-06T06:01:47.112Z,72.47
2022-10-06T06:04:50.562Z,72.23
2022-10-06T06:07:53.771Z,72.10
2022-10-06T06:11:05.284Z,70.92
2022-10-06T06:14:13.014Z,71.19
2022-10-06T06:17:15.874Z,71.15
2022-10-06T06:20:19.185Z,70.45
2022-10-06T06:23:22.881Z,70.51
2022-10-06T06:26:28.067Z,70.93
2022-10-06T06:29:30.977Z,70.89
2022-10-06T06:32:33.807Z,70.32
2022-10-06T06:35:37.521Z,70.48
2022-10-06T06:38:40.341Z,70.35
2022-10-06T06:41:46.244Z,70.53
2022-10-06T06:44:49.594Z,70.07
2022-10-06T06:47:53.327Z,69.59
2022-10-06T06:51:00.583Z,69.75
2022-10-06T06:54:05.253Z,69.31
2022-10-06T06:57:08.892Z,69.00
2022-10-06T07:00:13.147Z,69.00
2022-10-06T07:03:38.480Z,68.64
2022-10-06T07:06:42.828Z,68.08
2022-10-06T07:09:46.978Z,66.97
2022-10-06T07:12:52.327Z,66.12
2022-10-06T07:16:13.835Z,65.43
2022-10-06T07:19:57.517Z,63.97
2022-10-06T07:23:19.044Z,62.70
2022-10-06T07:26:21.866Z,62.07
2022-10-06T07:29:26.592Z,60.11
2022-10-06T07:32:31.266Z,58.49
2022-10-06T07:35:34.539Z,57.25
2022-10-06T07:38:37.635Z,55.48
2022-10-06T07:41:40.373Z,53.19
2022-10-06T07:44:43.816Z,45.37
2022-10-06T07:47:47.504Z,33.31
2022-10-06T07:50:52.465Z,24.65
2022-10-06T07:53:56.554Z,19.40
2022-10-06T07:57:00.038Z,15.97
2022-10-06T08:00:05.667Z,13.99
2022-10-06T08:03:18.031Z,12.08
2022-10-06T08:06:23.600Z,11.72
2022-10-06T08:09:26.282Z,11.17
2022-10-06T08:12:37.657Z,10.33
2022-10-06T08:15:40.309Z,9.88
2022-10-06T08:18:48.145Z,9.47
2022-10-06T08:21:50.942Z,9.62
2022-10-06T08:25:05.917Z,9.61
2022-10-06T08:28:13.160Z,8.72
2022-10-06T08:31:18.055Z,8.76
2022-10-06T08:34:21.719Z,9.50
2022-10-06T08:37:26.793Z,11.43
2022-10-06T08:40:29.544Z,12.88
2022-10-06T08:43:33.704Z,14.97
2022-10-06T08:46:45.763Z,17.32
2022-10-06T08:49:52.363Z,19.28
2022-10-06T08:53:15.641Z,21.11
2022-10-06T08:56:31.915Z,22.20
2022-10-06T08:59:36.640Z,23.11
2022-10-06T09:02:46.134Z,23.94
2022-10-06T09:05:48.802Z,24.38
2022-10-06T09:08:58.728Z,24.53
2022-10-06T09:12:14.527Z,24.86
2022-10-06T09:15:23.575Z,25.37
2022-10-06T09:19:03.417Z,25.55
2022-10-06T09:22:00.755Z,26.04
2022-10-06T09:25:20.785Z,25.40
2022-10-06T09:28:24.222Z,25.29
2022-10-06T09:31:32.581Z,26.29
2022-10-06T09:34:39.131Z,26.95
2022-10-06T09:38:08.244Z,26.41
2022-10-06T09:41:13.501Z,25.57
2022-10-06T09:44:27.787Z,25.32
2022-10-06T09:47:34.926Z,26.12
2022-10-06T09:50:37.391Z,27.79
2022-10-06T09:53:41.902Z,28.76
2022-10-06T09:56:47.273Z,28.83
2022-10-06T09:59:52.354Z,29.27
2022-10-06T10:03:04.236Z,28.70
2022-10-06T10:06:09.086Z,29.48
2022-10-06T10:09:22.297Z,29.76
2022-10-06T10:12:28.424Z,29.66
2022-10-06T10:15:38.329Z,31.18
2022-10-06T10:18:46.622Z,32.37
2022-10-06T10:21:49.159Z,33.16
2022-10-06T10:25:10.350Z,33.36
2022-10-06T10:28:29.033Z,32.94
2022-10-06T10:31:56.823Z,31.91
2022-10-06T10:35:21.003Z,29.64
2022-10-06T10:38:26.936Z,28.65
2022-10-06T10:41:46.349Z,28.14
2022-10-06T10:45:02.292Z,26.71
2022-10-06T10:48:16.827Z,26.54
2022-10-06T10:51:40.739Z,26.43
2022-10-06T10:54:49.310Z,28.06
2022-10-06T10:57:56.167Z,28.53
2022-10-06T11:01:07.942Z,28.95
2022-10-06T11:04:13.464Z,29.88
2022-10-06T11:07:39.177Z,30.28
2022-10-06T11:10:50.286Z,32.17
2022-10-06T11:13:56.555Z,34.31
2022-10-06T11:17:44.880Z,36.19
2022-10-06T11:20:58.788Z,36.25
2022-10-06T11:24:17.190Z,36.04
2022-10-06T11:28:02.017Z,34.55
2022-10-06T11:31:32.693Z,33.47
2022-10-06T11:34:35.448Z,33.69
2022-10-06T11:37:50.023Z,34.02
2022-10-06T11:41:09.886Z,32.99
2022-10-06T11:44:29.415Z,32.92
2022-10-06T11:47:36.496Z,33.72
2022-10-06T11:50:42.783Z,34.29
2022-10-06T11:53:45.375Z,34.13
2022-10-06T11:56:49.843Z,34.25
2022-10-06T11:59:57.167Z,33.95
2022-10-06T12:03:34.088Z,33.44
2022-10-06T12:06:42.902Z,33.55
2022-10-06T12:09:49.631Z,34.36
2022-10-06T12:13:31.783Z,35.15
2022-10-06T12:20:26.429Z,36.16
2022-10-06T12:23:47.225Z,36.89
2022-10-06T12:27:01.549Z,37.18
2022-10-06T12:30:30.851Z,37.50
2022-10-06T12:33:39.906Z,37.71
2022-10-06T12:36:45.158Z,38.28
2022-10-06T12:39:48.006Z,38.58
2022-10-06T12:42:55.304Z,38.83
2022-10-06T12:46:08.118Z,39.02
2022-10-06T12:49:40.406Z,38.59
2022-10-06T12:53:08.776Z,37.87
2022-10-06T12:56:28.226Z,37.40
2022-10-06T12:59:33.980Z,37.86
2022-10-06T13:02:36.899Z,38.37
2022-10-06T13:05:39.930Z,39.00
2022-10-06T13:08:42.856Z,38.99
2022-10-06T13:11:45.984Z,39.00
2022-10-06T13:14:48.714Z,38.27
2022-10-06T13:18:08.072Z,37.85
2022-10-06T13:21:16.197Z,37.65
2022-10-06T13:24:24.751Z,37.00
2022-10-06T13:27:27.492Z,37.16
2022-10-06T13:30:38.413Z,37.62
2022-10-06T13:33:43.662Z,37.40
2022-10-06T13:36:52.493Z,37.43
2022-10-06T13:39:56.208Z,37.67
2022-10-06T13:43:01.996Z,38.43
2022-10-06T13:46:11.128Z,38.92
2022-10-06T13:49:21.938Z,39.67
2022-10-06T13:52:35.531Z,40.11
2022-10-06T13:55:39.574Z,40.10
2022-10-06T13:58:42.112Z,40.19
2022-10-06T14:01:49.239Z,40.49
2022-10-06T14:05:26.904Z,40.43
2022-10-06T14:08:29.688Z,40.69
2022-10-06T14:11:32.636Z,41.02
2022-10-06T14:14:35.267Z,41.12
2022-10-06T14:17:38.264Z,41.42
2022-10-06T14:20:46.434Z,42.58
2022-10-06T14:23:54.247Z,43.33
2022-10-06T14:27:02.282Z,43.48
2022-10-06T14:30:05.788Z,43.78
2022-10-06T14:33:08.915Z,44.14
2022-10-06T14:36:16.500Z,44.39
2022-10-06T14:39:20.799Z,44.98
2022-10-06T14:42:24.505Z,45.15
2022-10-06T14:45:27.023Z,45.48
2022-10-06T14:48:29.971Z,45.50
2022-10-06T14:51:36.625Z,45.65
2022-10-06T14:54:39.838Z,45.84
2022-10-06T14:57:42.322Z,45.97
2022-10-06T15:00:45.858Z,46.10
2022-10-06T15:04:00.659Z,46.45
2022-10-06T15:07:22.191Z,46.18
2022-10-06T15:10:24.874Z,46.44
2022-10-06T15:13:27.836Z,47.20
2022-10-06T15:16:33.433Z,47.67
2022-10-06T15:19:36.507Z,48.07
2022-10-06T15:22:38.989Z,48.69
2022-10-06T15:26:11.231Z,49.13
2022-10-06T15:29:14.413Z,49.43
2022-10-06T15:32:17.445Z,49.92
2022-10-06T15:35:19.884Z,50.32
2022-10-06T15:38:22.656Z,50.79
2022-10-06T15:41:25.538Z,51.18
2022-10-06T15:44:32.115Z,51.66
2022-10-06T15:47:35.602Z,51.96
2022-10-06T15:50:39.507Z,52.29
2022-10-06T15:53:45.338Z,52.59
2022-10-06T15:56:50.645Z,52.66
2022-10-06T15:59:53.096Z,53.02
2022-10-06T16:02:59.430Z,53.43
2022-10-06T16:06:05.123Z,53.75
2022-10-06T16:09:12.403Z,54.16
2022-10-06T16:12:21.758Z,54.79
2022-10-06T16:15:24.773Z,55.06
2022-10-06T16:18:31.612Z,55.36
2022-10-06T16:21:34.790Z,55.62
2022-10-06T16:24:37.532Z,55.71
2022-10-06T16:27:40.188Z,56.02
2022-10-06T16:30:43.068Z,56.43
2022-10-06T16:33:46.218Z,56.84
2022-10-06T16:36:48.985Z,57.01
2022-10-06T16:39:52.991Z,57.15
2022-10-06T16:42:55.895Z,57.21
2022-10-06T16:46:07.095Z,57.38
2022-10-06T16:49:10.997Z,57.63
2022-10-06T16:52:13.810Z,57.77
2022-10-06T16:55:16.823Z,58.01
2022-10-06T16:58:21.483Z,58.18
2022-10-06T17:01:27.479Z,58.16
2022-10-06T17:04:30.277Z,58.28
2022-10-06T17:07:34.054Z,58.42
2022-10-06T17:10:36.698Z,58.67
2022-10-06T17:13:42.317Z,58.82
2022-10-06T17:16:46.707Z,59.05
2022-10-06T17:19:50.096Z,59.28
2022-10-06T17:22:52.854Z,59.44
2022-10-06T17:26:19.211Z,59.59
2022-10-06T17:29:22.962Z,59.72
2022-10-06T17:32:25.858Z,59.95
2022-10-06T17:35:28.518Z,60.17
2022-10-06T17:38:32.890Z,60.40
2022-10-06T17:41:38.053Z,60.71
2022-10-06T17:44:41.231Z,60.91
2022-10-06T17:47:44.739Z,61.18
2022-10-06T17:50:56.227Z,61.48
2022-10-06T17:54:01.577Z,61.72
2022-10-06T17:57:05.036Z,62.02
2022-10-06T18:00:09.871Z,62.30
2022-10-06T18:03:14.354Z,62.55
2022-10-06T18:06:17.865Z,62.77
2022-10-06T18:09:21.754Z,63.10
2022-10-06T18:12:24.683Z,63.34
2022-10-06T18:15:27.180Z,63.56
2022-10-06T18:18:31.171Z,63.74
2022-10-06T18:21:37.537Z,63.95
2022-10-06T18:24:40.600Z,64.09
2022-10-06T18:27:43.658Z,64.19
2022-10-06T18:30:50.695Z,64.39
2022-10-06T18:37:16.793Z,64.77
2022-10-06T18:40:19.324Z,64.99
2022-10-06T18:43:22.487Z,65.13
2022-10-06T18:46:44.808Z,65.30
2022-10-06T18:49:47.809Z,65.45
2022-10-06T18:52:50.331Z,65.71
2022-10-06T18:55:53.306Z,65.94
2022-10-06T18:58:58.650Z,66.18
2022-10-06T19:02:02.359Z,66.44
2022-10-06T19:05:05.374Z,66.63
2022-10-06T19:08:09.418Z,66.80
2022-10-06T19:11:30.489Z,66.99
2022-10-06T19:14:36.652Z,67.11
2022-10-06T19:17:40.754Z,67.24
2022-10-06T19:20:50.876Z,67.36
2022-10-06T19:23:53.309Z,67.54
2022-10-06T19:26:57.222Z,67.76
2022-10-06T19:29:59.654Z,67.96
2022-10-06T19:33:02.707Z,68.16
2022-10-06T19:36:06.906Z,68.37
2022-10-06T19:39:12.413Z,68.57
2022-10-06T19:42:35.522Z,68.64
2022-10-06T19:45:38.618Z,68.67
2022-10-06T19:48:41.549Z,68.72
2022-10-06T19:51:44.962Z,68.83
2022-10-06T19:54:47.428Z,69.03
2022-10-06T19:57:52.533Z,69.33
2022-10-06T20:00:54.999Z,69.59
2022-10-06T20:03:58.720Z,69.74
2022-10-06T20:07:01.872Z,69.95
2022-10-06T20:10:05.030Z,70.18
2022-10-06T20:13:07.538Z,70.30
2022-10-06T20:16:13.590Z,70.42
2022-10-06T20:19:17.258Z,70.47
2022-10-06T20:22:20.203Z,70.50
2022-10-06T20:25:22.632Z,70.58
2022-10-06T20:28:25.744Z,70.69
2022-10-06T20:31:30.821Z,70.77
2022-10-06T20:34:33.892Z,70.79
2022-10-06T20:37:38.352Z,70.91
2022-10-06T20:40:49.230Z,71.06
2022-10-06T20:43:53.976Z,71.19
2022-10-06T20:46:56.878Z,71.33
2022-10-06T20:49:59.290Z,71.48
2022-10-06T20:53:02.243Z,71.63
2022-10-06T20:56:05.704Z,71.90
2022-10-06T20:59:12.183Z,72.16
2022-10-06T21:02:14.762Z,72.37
2022-10-06T21:05:17.577Z,72.70
2022-10-06T21:08:19.906Z,72.91
2022-10-06T21:11:24.878Z,72.97
2022-10-06T21:14:27.347Z,73.09
2022-10-06T21:17:30.311Z,73.16
2022-10-06T21:20:32.950Z,73.33
2022-10-06T21:23:38.772Z,73.58
2022-10-06T21:26:42.431Z,73.80
2022-10-06T21:29:45.454Z,73.97
2022-10-06T21:32:47.858Z,74.01
2022-10-06T21:36:04.998Z,74.02
2022-10-06T21:39:07.642Z,74.15
2022-10-06T21:42:11.082Z,74.32
2022-10-06T21:45:13.639Z,74.46
2022-10-06T21:48:18.225Z,74.59
2022-10-06T21:51:23.034Z,74.82
2022-10-06T21:54:26.074Z,75.14
2022-10-06T21:57:28.540Z,75.32
2022-10-06T22:00:31.427Z,75.33
2022-10-06T22:03:38.733Z,75.45
2022-10-06T22:06:42.738Z,75.63
2022-10-06T22:09:45.532Z,75.92
2022-10-06T22:12:49.065Z,75.96
2022-10-06T22:15:51.965Z,75.92
2022-10-06T22:18:56.018Z,75.97
2022-10-06T22:21:58.847Z,75.99
2022-10-06T22:25:01.611Z,76.07
2022-10-06T22:28:04.375Z,76.11
2022-10-06T22:31:08.638Z,76.37
2022-10-06T22:34:13.326Z,76.49
2022-10-06T22:37:16.697Z,76.39
2022-10-06T22:40:19.402Z,76.37
2022-10-06T22:43:22.308Z,76.37
2022-10-06T22:46:31.110Z,76.36
2022-10-06T22:49:33.798Z,76.37
2022-10-06T22:52:36.494Z,76.37
2022-10-06T22:55:39.121Z,76.50
2022-10-06T22:58:42.913Z,76.68
2022-10-06T23:01:45.610Z,76.70
2022-10-06T23:04:48.304Z,76.68
2022-10-06T23:07:51.451Z,76.76
2022-10-06T23:10:54.220Z,76.75
2022-10-06T23:13:56.898Z,76.89
2022-10-06T23:17:00.592Z,76.86
2022-10-06T23:20:04.433Z,76.85
2022-10-06T23:23:07.198Z,76.97
2022-10-06T23:26:12.346Z,77.09
2022-10-06T23:29:15.075Z,77.11
2022-10-06T23:32:17.880Z,77.15
2022-10-06T23:35:20.734Z,77.14
2022-10-06T23:38:23.626Z,77.14
2022-10-06T23:41:26.339Z,77.30
2022-10-06T23:44:29.283Z,77.49
2022-10-06T23:47:31.948Z,77.60
2022-10-06T23:50:34.678Z,77.74
2022-10-06T23:53:37.850Z,77.98
2022-10-06T23:56:40.510Z,78.06
2022-10-06T23:59:43.182Z,78.12
